Time;durP1;ratioP1;P1;durP2;ratioP2;P2;SDS_P1;SDS_P2;PMS_P1;PMS_P2;Temp;Humidity;BMP_temperature;BMP_pressure;BME280_temperature;BME280_humidity;BME280_pressure;Samples;Min_cycle;Max_cycle;Signal;HPM_P1;HPM_P2
2023/06/30 00:00:47;;;;;;;5.93;3.75;;;22.00;1.00;;;;;;7385838;19;20082;-71
2023/06/30 00:03:17;;;;;;;6.15;4.10;;;21.80;1.00;;;;;;7387464;19;20478;-70
2023/06/30 00:05:49;;;;;;;5.38;3.95;;;21.80;1.00;;;;;;7387087;19;20078;-71
2023/06/30 00:08:22;;;;;;;7.72;4.22;;;21.80;1.00;;;;;;7391291;19;20373;-70
2023/06/30 00:10:52;;;;;;;5.28;3.70;;;21.90;1.00;;;;;;7385970;19;20014;-70
2023/06/30 00:13:22;;;;;;;5.70;4.10;;;21.90;1.00;;;;;;7386115;19;20594;-70
2023/06/30 00:15:54;;;;;;;6.32;4.00;;;21.90;1.00;;;;;;7387107;19;20092;-71
2023/06/30 00:18:24;;;;;;;9.13;3.83;;;21.90;1.00;;;;;;7389105;19;20014;-70
2023/06/30 00:20:54;;;;;;;5.05;3.95;;;21.90;1.00;;;;;;7385146;19;20657;-71
2023/06/30 00:23:28;;;;;;;7.93;4.03;;;22.00;1.00;;;;;;7386188;19;20548;-70
2023/06/30 00:25:58;;;;;;;8.32;3.72;;;22.00;1.00;;;;;;7385345;19;20011;-71
2023/06/30 00:28:28;;;;;;;8.80;4.45;;;22.00;1.00;;;;;;7389060;19;20014;-70
2023/06/30 00:30:57;;;;;;;6.15;4.25;;;22.00;1.00;;;;;;7391547;19;20060;-70
2023/06/30 00:33:28;;;;;;;6.75;4.30;;;21.90;1.00;;;;;;7394300;19;20014;-70
2023/06/30 00:35:58;;;;;;;11.27;4.40;;;21.90;1.00;;;;;;7393948;19;20043;-70
2023/06/30 00:38:30;;;;;;;4.95;4.18;;;21.70;1.00;;;;;;7395508;19;20434;-70
2023/06/30 00:41:00;;;;;;;6.93;4.18;;;21.70;1.00;;;;;;7391487;19;20021;-71
2023/06/30 00:43:30;;;;;;;7.63;4.10;;;21.60;1.00;;;;;;7393232;19;20031;-70
2023/06/30 00:46:00;;;;;;;6.53;4.32;;;21.50;1.00;;;;;;7393315;19;20433;-69
2023/06/30 00:48:30;;;;;;;5.65;4.13;;;21.50;1.00;;;;;;7393456;19;20506;-70
2023/06/30 00:51:00;;;;;;;5.53;4.07;;;21.50;1.00;;;;;;7390803;19;20014;-70
2023/06/30 00:53:33;;;;;;;5.43;3.90;;;21.50;1.00;;;;;;7392510;19;20014;-70
2023/06/30 00:56:03;;;;;;;7.60;4.18;;;21.40;1.00;;;;;;7393226;19;20369;-70
2023/06/30 00:58:33;;;;;;;6.38;4.00;;;21.50;1.00;;;;;;7395368;19;20006;-70
2023/06/30 01:01:07;;;;;;;6.35;4.82;;;21.60;1.00;;;;;;7389388;19;20383;-71
2023/06/30 01:03:42;;;;;;;5.55;4.55;;;21.30;1.00;;;;;;7393360;19;20038;-70
2023/06/30 01:06:19;;;;;;;7.15;4.32;;;21.10;1.00;;;;;;7393338;19;20042;-70
2023/06/30 01:08:58;;;;;;;7.50;4.68;;;20.90;1.00;;;;;;7395680;19;20088;-70
2023/06/30 01:11:28;;;;;;;12.05;4.78;;;20.90;1.00;;;;;;7389503;19;20915;-70
2023/06/30 01:14:00;;;;;;;5.88;4.18;;;20.80;1.00;;;;;;7393082;19;20018;-70
2023/06/30 01:16:31;;;;;;;7.70;5.03;;;20.70;1.00;;;;;;7392832;19;20365;-70
2023/06/30 01:19:06;;;;;;;6.85;4.47;;;20.70;1.00;;;;;;7396651;19;20014;-71
2023/06/30 01:21:36;;;;;;;;;;;20.70;1.00;;;;;;7390811;19;20014;-71
2023/06/30 01:24:12;;;;;;;5.07;4.57;;;20.60;1.00;;;;;;7391827;19;19914;-70
2023/06/30 01:26:42;;;;;;;5.78;4.63;;;20.60;1.00;;;;;;7391906;19;20014;-70
2023/06/30 01:29:12;;;;;;;7.97;4.40;;;20.60;1.00;;;;;;7395096;19;20043;-70
2023/06/30 01:31:43;;;;;;;6.85;4.55;;;20.50;1.00;;;;;;7389985;19;20010;-70
2023/06/30 01:34:13;;;;;;;10.45;5.93;;;20.60;1.00;;;;;;7391750;19;20014;-71
2023/06/30 01:36:43;;;;;;;8.05;4.75;;;20.60;1.00;;;;;;7391767;19;20011;-71
2023/06/30 01:39:16;;;;;;;6.53;4.53;;;20.60;1.00;;;;;;7395147;19;20070;-70
2023/06/30 01:41:46;;;;;;;7.28;4.53;;;20.60;1.00;;;;;;7391249;19;20078;-71
2023/06/30 01:44:17;;;;;;;6.80;4.88;;;20.50;1.00;;;;;;7390108;19;20035;-71
2023/06/30 01:46:47;;;;;;;10.25;4.70;;;20.50;1.00;;;;;;7391269;19;20085;-71
2023/06/30 01:49:20;;;;;;;5.10;4.60;;;20.50;1.00;;;;;;7395322;19;20018;-69
2023/06/30 01:51:50;;;;;;;7.10;4.60;;;20.40;1.00;;;;;;7391581;19;20035;-72
2023/06/30 01:54:22;;;;;;;5.80;4.82;;;20.40;1.00;;;;;;7390978;19;20042;-70
2023/06/30 01:56:52;;;;;;;5.95;4.53;;;20.30;1.00;;;;;;7392861;19;20366;-71
2023/06/30 01:59:22;;;;;;;7.85;4.57;;;20.30;1.00;;;;;;7394266;19;20022;-71
2023/06/30 02:01:52;;;;;;;5.50;4.63;;;20.30;1.00;;;;;;7390885;19;20499;-71
2023/06/30 02:04:22;;;;;;;7.93;4.75;;;20.30;1.00;;;;;;7390250;19;20015;-71
2023/06/30 02:06:52;;;;;;;5.45;4.70;;;20.30;1.00;;;;;;7393186;19;20496;-72
2023/06/30 02:09:25;;;;;;;6.18;4.75;;;20.20;1.00;;;;;;7393166;19;20017;-72
2023/06/30 02:12:15;;;;;;;6.43;4.80;;;20.30;1.00;;;;;;7389111;19;20027;-72
2023/06/30 02:14:45;;;;;;;5.45;4.95;;;20.20;1.00;;;;;;7390366;19;20018;-72
2023/06/30 02:17:15;;;;;;;6.85;5.13;;;20.20;1.00;;;;;;7390837;19;20014;-72
2023/06/30 02:19:45;;;;;;;8.32;5.13;;;20.20;1.00;;;;;;7394021;19;20355;-71
2023/06/30 02:22:15;;;;;;;5.10;4.57;;;20.20;1.00;;;;;;7390000;19;20727;-72
2023/06/30 02:24:47;;;;;;;7.18;4.95;;;20.10;1.00;;;;;;7389933;19;20014;-72
2023/06/30 02:27:17;;;;;;;7.00;4.45;;;20.10;1.00;;;;;;7390872;19;20014;-72
2023/06/30 02:29:47;;;;;;;6.30;4.78;;;20.20;1.00;;;;;;7393290;19;20483;-73
2023/06/30 02:32:17;;;;;;;6.53;4.53;;;20.20;1.00;;;;;;7388631;19;20014;-73
2023/06/30 02:34:47;;;;;;;6.65;4.75;;;20.10;1.00;;;;;;7389163;19;20014;-72
2023/06/30 02:37:17;;;;;;;7.78;4.88;;;20.00;1.00;;;;;;7390068;19;20014;-72
2023/06/30 02:39:50;;;;;;;5.65;4.68;;;20.00;1.00;;;;;;7392997;19;20039;-71
2023/06/30 02:42:19;;;;;;;5.85;4.72;;;20.10;1.00;;;;;;7389950;19;20022;-72
2023/06/30 02:44:49;;;;;;;7.68;4.53;;;20.10;1.00;;;;;;7388928;19;20014;-72
2023/06/30 02:47:19;;;;;;;7.97;5.22;;;20.20;1.00;;;;;;7389594;19;20035;-71
2023/06/30 02:49:49;;;;;;;5.25;4.68;;;20.30;1.00;;;;;;7392128;19;20347;-71
2023/06/30 02:52:19;;;;;;;5.47;4.65;;;20.30;1.00;;;;;;7388781;19;20022;-71
2023/06/30 02:54:52;;;;;;;6.88;5.05;;;20.30;1.00;;;;;;7388426;19;20010;-71
2023/06/30 02:57:22;;;;;;;7.50;5.03;;;20.20;1.00;;;;;;7388992;19;20086;-73
2023/06/30 02:59:52;;;;;;;6.70;4.93;;;20.30;1.00;;;;;;7392328;19;20482;-71
2023/06/30 03:02:22;;;;;;;7.38;4.55;;;20.40;1.00;;;;;;7388377;19;20018;-71
2023/06/30 03:04:55;;;;;;;6.97;5.03;;;20.50;1.00;;;;;;7388584;19;20018;-71
2023/06/30 03:07:25;;;;;;;6.50;4.70;;;20.50;1.00;;;;;;7389094;19;20043;-72
2023/06/30 03:09:58;;;;;;;5.47;4.47;;;20.60;1.00;;;;;;7392097;19;20019;-72
2023/06/30 03:12:28;;;;;;;9.90;4.60;;;20.60;1.00;;;;;;7387389;19;20014;-72
2023/06/30 03:14:58;;;;;;;8.05;4.65;;;20.70;1.00;;;;;;7388344;19;20018;-72
2023/06/30 03:17:28;;;;;;;6.65;4.72;;;20.70;1.00;;;;;;7388821;19;20014;-72
2023/06/30 03:19:57;;;;;;;8.85;4.70;;;20.80;1.00;;;;;;7389995;19;20365;-71
2023/06/30 03:22:27;;;;;;;6.43;4.55;;;20.70;1.00;;;;;;7388521;19;20126;-72
2023/06/30 03:25:00;;;;;;;5.35;4.43;;;20.80;1.00;;;;;;7387941;19;20010;-72
2023/06/30 03:27:30;;;;;;;5.97;4.13;;;20.70;1.00;;;;;;7389643;19;20010;-72
2023/06/30 03:30:00;;;;;;;6.45;4.15;;;20.60;1.00;;;;;;7392161;19;20022;-72
2023/06/30 03:32:30;;;;;;;4.80;3.85;;;20.70;1.00;;;;;;7387804;19;20014;-72
2023/06/30 03:35:02;;;;;;;6.72;4.00;;;20.60;1.00;;;;;;7387374;19;20019;-72
2023/06/30 03:37:33;;;;;;;10.90;5.15;;;20.70;1.00;;;;;;7386719;19;20049;-72
2023/06/30 03:40:06;;;;;;;7.90;5.00;;;20.70;1.00;;;;;;7391234;19;20034;-72
2023/06/30 03:42:37;;;;;;;7.75;5.10;;;20.50;1.00;;;;;;7388306;19;20057;-71
2023/06/30 03:45:08;;;;;;;6.85;5.47;;;20.40;1.00;;;;;;7387087;19;20029;-72
2023/06/30 03:47:38;;;;;;;8.20;5.22;;;20.30;1.00;;;;;;7388091;19;20111;-72
2023/06/30 03:50:09;;;;;;;7.10;5.38;;;20.10;1.00;;;;;;7391062;19;20015;-72
2023/06/30 03:52:40;;;;;;;5.78;5.03;;;20.10;1.00;;;;;;7387486;19;20021;-72
2023/06/30 03:55:12;;;;;;;8.43;5.10;;;20.10;1.00;;;;;;7386694;19;20014;-72
2023/06/30 03:57:42;;;;;;;7.70;5.13;;;20.10;1.00;;;;;;7387746;19;20019;-73
2023/06/30 04:00:14;;;;;;;8.52;5.43;;;20.10;1.00;;;;;;7390449;19;20014;-73
2023/06/30 04:02:44;;;;;;;6.70;5.00;;;20.10;1.00;;;;;;7387426;19;20011;-73
2023/06/30 04:05:14;;;;;;;5.78;5.20;;;20.10;1.00;;;;;;7387048;19;20019;-74
2023/06/30 04:07:44;;;;;;;6.47;5.57;;;20.00;1.00;;;;;;7394585;19;20482;-73
2023/06/30 04:10:17;;;;;;;7.15;5.25;;;20.00;1.00;;;;;;7397855;19;20389;-73
2023/06/30 04:12:47;;;;;;;9.18;5.65;;;20.10;1.00;;;;;;7393722;19;20385;-73
2023/06/30 04:15:16;;;;;;;6.22;5.38;;;20.00;1.00;;;;;;7394440;19;20538;-72
2023/06/30 04:17:46;;;;;;;8.10;5.68;;;19.90;1.00;;;;;;7394199;19;20015;-73
2023/06/30 04:20:17;;;;;;;7.63;5.72;;;20.00;1.00;;;;;;7397351;19;20426;-73
2023/06/30 04:22:47;;;;;;;7.35;5.85;;;20.00;1.00;;;;;;7394768;19;20014;-72
2023/06/30 04:25:19;;;;;;;8.02;5.93;;;20.10;1.00;;;;;;7393832;19;20014;-73
2023/06/30 04:27:49;;;;;;;6.80;5.18;;;20.20;1.00;;;;;;7393974;19;20070;-73
2023/06/30 04:30:19;;;;;;;7.88;5.70;;;20.10;1.00;;;;;;7397089;19;20377;-72
2023/06/30 04:32:49;;;;;;;8.32;6.10;;;20.10;1.00;;;;;;7393070;19;20021;-72
2023/06/30 04:35:24;;;;;;;8.55;5.47;;;20.00;1.00;;;;;;7394008;19;20014;-73
2023/06/30 04:37:55;;;;;;;7.47;5.70;;;20.10;1.00;;;;;;7392909;19;20025;-72
2023/06/30 04:40:27;;;;;;;7.55;5.80;;;20.20;1.00;;;;;;7394785;19;20043;-72
2023/06/30 04:42:57;;;;;;;6.57;5.22;;;20.30;1.00;;;;;;7394041;19;20002;-73
2023/06/30 04:45:27;;;;;;;9.15;5.50;;;20.40;1.00;;;;;;7393478;19;20015;-73
2023/06/30 04:47:57;;;;;;;6.55;5.55;;;20.60;1.00;;;;;;7393025;19;20010;-73
2023/06/30 04:50:27;;;;;;;8.10;5.70;;;20.60;1.00;;;;;;7396063;19;20018;-73
2023/06/30 04:52:57;;;;;;;9.85;5.57;;;20.60;1.00;;;;;;7392093;19;20049;-73
2023/06/30 04:55:30;;;;;;;6.00;5.03;;;20.70;1.00;;;;;;7392911;19;20025;-73
2023/06/30 04:58:00;;;;;;;8.23;5.18;;;20.90;1.00;;;;;;7393406;19;20035;-74
2023/06/30 05:00:29;;;;;;;10.07;5.97;;;20.80;1.00;;;;;;7396461;19;20413;-74
2023/06/30 05:03:02;;;;;;;7.40;5.40;;;20.40;1.00;;;;;;7393584;19;20354;-74
2023/06/30 05:05:32;;;;;;;8.23;5.82;;;20.30;1.00;;;;;;7393178;19;20014;-73
2023/06/30 05:08:02;;;;;;;8.45;5.75;;;20.40;1.00;;;;;;7392834;19;20010;-73
2023/06/30 05:10:35;;;;;;;8.18;6.05;;;20.40;1.00;;;;;;7395387;19;20019;-73
2023/06/30 05:13:04;;;;;;;10.85;6.18;;;20.40;1.00;;;;;;7391963;19;20019;-73
2023/06/30 05:15:34;;;;;;;8.98;6.15;;;20.30;1.00;;;;;;7392525;19;20014;-73
2023/06/30 05:18:05;;;;;;;9.05;5.97;;;20.30;1.00;;;;;;7392953;19;20042;-73
2023/06/30 05:20:39;;;;;;;9.65;6.20;;;20.40;1.00;;;;;;7391282;19;20014;-73
2023/06/30 05:23:08;;;;;;;8.88;5.88;;;20.50;1.00;;;;;;7392241;19;20015;-73
2023/06/30 05:25:42;;;;;;;8.00;5.65;;;20.40;1.00;;;;;;7392026;19;20027;-73
2023/06/30 05:28:12;;;;;;;10.27;6.15;;;20.60;1.00;;;;;;7392145;19;20006;-73
2023/06/30 05:30:42;;;;;;;8.38;5.68;;;20.60;1.00;;;;;;7394465;19;20034;-74
2023/06/30 05:33:12;;;;;;;12.82;6.13;;;20.60;1.00;;;;;;7389663;19;20041;-73
2023/06/30 05:35:42;;;;;;;9.90;5.55;;;20.70;1.00;;;;;;7391511;19;20096;-73
2023/06/30 05:38:12;;;;;;;16.63;6.43;;;20.70;1.00;;;;;;7391069;19;20502;-73
2023/06/30 05:40:45;;;;;;;10.38;5.90;;;20.80;1.00;;;;;;7390348;19;20035;-73
2023/06/30 05:43:15;;;;;;;10.20;5.57;;;20.80;1.00;;;;;;7390732;19;20475;-72
2023/06/30 05:45:44;;;;;;;10.32;5.60;;;20.70;1.00;;;;;;7390090;19;20077;-73
2023/06/30 05:48:15;;;;;;;7.88;5.78;;;20.60;1.00;;;;;;7391809;19;20043;-73
2023/06/30 05:50:45;;;;;;;9.35;6.07;;;20.40;1.00;;;;;;7390234;19;20022;-73
2023/06/30 05:53:15;;;;;;;9.95;6.70;;;20.30;1.00;;;;;;7390751;19;20026;-73
2023/06/30 05:55:47;;;;;;;7.38;6.40;;;20.30;1.00;;;;;;7391562;19;20018;-74
2023/06/30 05:58:17;;;;;;;10.70;6.43;;;20.40;1.00;;;;;;7391816;19;20014;-72
2023/06/30 06:00:47;;;;;;;8.18;6.80;;;20.40;1.00;;;;;;7389877;19;20019;-72
2023/06/30 06:03:17;;;;;;;9.07;6.88;;;20.50;1.00;;;;;;7391186;19;20014;-72
2023/06/30 06:05:48;;;;;;;10.35;6.93;;;20.50;1.00;;;;;;7391726;19;20010;-73
2023/06/30 06:08:18;;;;;;;10.13;6.28;;;20.30;1.00;;;;;;7391103;19;20021;-73
2023/06/30 06:10:51;;;;;;;11.43;6.38;;;20.60;1.00;;;;;;7387822;19;20031;-73
2023/06/30 06:13:34;;;;;;;10.73;6.57;;;20.80;1.00;;;;;;7388992;19;20015;-73
2023/06/30 06:16:06;;;;;;;11.65;6.85;;;20.90;1.00;;;;;;7389609;19;20010;-73
2023/06/30 06:18:37;;;;;;;11.90;6.07;;;20.90;1.00;;;;;;7391003;19;20033;-72
2023/06/30 06:21:07;;;;;;;10.90;5.82;;;20.90;1.00;;;;;;7388919;19;20377;-73
2023/06/30 06:23:37;;;;;;;13.80;6.82;;;21.00;1.00;;;;;;7390890;19;20014;-73
2023/06/30 06:26:10;;;;;;;9.60;6.55;;;21.00;1.00;;;;;;7390277;19;20077;-74
2023/06/30 06:28:40;;;;;;;8.43;6.50;;;20.70;1.00;;;;;;7388757;19;20516;-74
2023/06/30 06:31:10;;;;;;;14.30;6.97;;;20.80;1.00;;;;;;7387868;19;20479;-73
2023/06/30 06:33:41;;;;;;;8.77;6.75;;;20.70;1.00;;;;;;7388020;19;20029;-75
2023/06/30 06:36:12;;;;;;;10.88;6.53;;;20.70;1.00;;;;;;7390209;19;20015;-73
2023/06/30 06:38:42;;;;;;;10.00;6.90;;;20.90;1.00;;;;;;7390323;19;20018;-74
2023/06/30 06:41:14;;;;;;;9.55;6.57;;;21.00;1.00;;;;;;7388506;19;20014;-73
2023/06/30 06:43:44;;;;;;;11.98;7.18;;;21.10;1.00;;;;;;7390061;19;20018;-73
2023/06/30 06:46:14;;;;;;;10.80;7.13;;;21.10;1.00;;;;;;7389849;19;20022;-73
2023/06/30 06:48:44;;;;;;;11.90;7.20;;;21.10;1.00;;;;;;7389201;19;20021;-74
2023/06/30 06:51:14;;;;;;;11.93;7.45;;;21.20;1.00;;;;;;7387567;19;20018;-72
2023/06/30 06:53:44;;;;;;;13.43;7.28;;;21.30;1.00;;;;;;7389803;19;20425;-73
2023/06/30 06:56:17;;;;;;;10.48;6.95;;;21.40;1.00;;;;;;7390288;19;20014;-74
2023/06/30 06:58:47;;;;;;;13.40;7.10;;;21.40;1.00;;;;;;7390112;19;20018;-73
2023/06/30 07:01:17;;;;;;;14.77;8.05;;;21.50;1.00;;;;;;7387353;19;20019;-73
2023/06/30 07:03:47;;;;;;;13.02;8.13;;;21.40;1.00;;;;;;7388692;19;20018;-73
2023/06/30 07:06:18;;;;;;;17.45;10.98;;;21.20;1.00;;;;;;7389564;19;20014;-73
2023/06/30 07:08:48;;;;;;;11.30;7.32;;;21.40;1.00;;;;;;7389260;19;20007;-74
2023/06/30 07:11:21;;;;;;;12.02;8.18;;;21.40;1.00;;;;;;7387361;19;20483;-73
2023/06/30 07:13:51;;;;;;;9.18;6.90;;;21.30;1.00;;;;;;7388637;19;20022;-73
2023/06/30 07:16:21;;;;;;;13.45;7.88;;;21.30;1.00;;;;;;7388993;19;20015;-74
2023/06/30 07:18:51;;;;;;;11.02;8.02;;;21.30;1.00;;;;;;7388478;19;20038;-74
2023/06/30 07:21:21;;;;;;;10.27;8.23;;;21.50;1.00;;;;;;7385780;19;20585;-74
2023/06/30 07:23:52;;;;;;;11.07;8.25;;;21.20;1.00;;;;;;7386893;19;20023;-74
2023/06/30 07:26:24;;;;;;;12.55;8.50;;;21.10;1.00;;;;;;7388891;19;20023;-73
2023/06/30 07:28:54;;;;;;;16.83;8.48;;;21.30;1.00;;;;;;7388742;19;20027;-73
2023/06/30 07:31:24;;;;;;;10.65;8.43;;;21.30;1.00;;;;;;7387136;19;20011;-72
2023/06/30 07:33:54;;;;;;;12.60;8.07;;;21.10;1.00;;;;;;7387559;19;20616;-73
2023/06/30 07:36:24;;;;;;;10.13;7.80;;;21.20;1.00;;;;;;7388431;19;20015;-73
2023/06/30 07:38:54;;;;;;;12.35;8.00;;;21.20;1.00;;;;;;7387888;19;20022;-72
2023/06/30 07:41:34;;;;;;;11.13;7.95;;;21.20;1.00;;;;;;7383097;19;20482;-74
2023/06/30 07:44:05;;;;;;;11.63;7.90;;;20.90;1.00;;;;;;7387284;19;20015;-73
2023/06/30 07:46:35;;;;;;;16.73;7.72;;;20.70;1.00;;;;;;7388665;19;20071;-74
2023/06/30 07:49:05;;;;;;;15.05;8.10;;;20.50;1.00;;;;;;7388587;19;20494;-73
2023/06/30 07:51:35;;;;;;;10.70;7.75;;;20.40;1.00;;;;;;7385435;19;20014;-73
2023/06/30 07:54:07;;;;;;;13.63;8.73;;;20.40;1.00;;;;;;7387092;19;20504;-73
2023/06/30 07:56:40;;;;;;;9.88;8.63;;;20.50;1.00;;;;;;7387602;19;20010;-73
2023/06/30 07:59:10;;;;;;;16.38;8.25;;;20.60;1.00;;;;;;7388705;19;20074;-72
2023/06/30 08:01:39;;;;;;;12.82;8.27;;;20.70;1.00;;;;;;7387408;19;20078;-74
2023/06/30 08:04:11;;;;;;;15.13;9.60;;;20.90;1.00;;;;;;7385862;19;20011;-73
2023/06/30 08:06:41;;;;;;;15.75;10.82;;;20.80;1.00;;;;;;7385642;19;20015;-73
2023/06/30 08:09:11;;;;;;;19.35;11.07;;;20.60;1.00;;;;;;7387692;19;20011;-74
2023/06/30 08:11:43;;;;;;;14.88;10.68;;;20.30;1.00;;;;;;7387963;19;20104;-74
2023/06/30 08:14:13;;;;;;;19.63;11.80;;;20.40;1.00;;;;;;7386643;19;20029;-74
2023/06/30 08:16:43;;;;;;;23.67;12.63;;;20.20;1.00;;;;;;7387343;19;20007;-72
2023/06/30 08:19:13;;;;;;;18.40;12.20;;;20.30;1.00;;;;;;7387624;19;20035;-73
2023/06/30 08:22:03;;;;;;;19.23;13.63;;;20.20;1.00;;;;;;7387490;19;20019;-73
2023/06/30 08:24:33;;;;;;;18.98;12.27;;;20.00;1.00;;;;;;7386179;19;20031;-74
2023/06/30 08:27:06;;;;;;;19.40;12.38;;;19.60;1.00;;;;;;7386970;19;20139;-74
2023/06/30 08:29:36;;;;;;;18.60;13.23;;;19.50;1.50;;;;;;7388905;19;20027;-72
2023/06/30 08:32:07;;;;;;;16.98;12.82;;;19.50;4.30;;;;;;7387196;19;20018;-72
2023/06/30 08:34:37;;;;;;;21.10;13.95;;;19.60;6.00;;;;;;7386203;19;20011;-73
2023/06/30 08:37:08;;;;;;;22.98;14.55;;;19.50;5.70;;;;;;7388044;19;20011;-75
2023/06/30 08:39:39;;;;;;;16.58;14.15;;;19.40;13.60;;;;;;7386740;19;20014;-73
2023/06/30 08:42:13;;;;;;;20.23;13.95;;;19.30;14.20;;;;;;7387025;19;20019;-72
2023/06/30 08:44:46;;;;;;;23.40;14.50;;;19.40;16.40;;;;;;7384722;19;20016;-72
2023/06/30 08:47:17;;;;;;;20.92;15.57;;;19.40;18.00;;;;;;7387031;19;20011;-72
2023/06/30 08:49:48;;;;;;;22.17;16.00;;;19.30;19.30;;;;;;7386703;19;20089;-72
2023/06/30 08:52:19;;;;;;;24.58;16.27;;;19.50;22.70;;;;;;7389911;19;20015;-72
2023/06/30 08:54:49;;;;;;;23.73;16.10;;;19.50;23.00;;;;;;7391854;19;20020;-71
2023/06/30 08:57:24;;;;;;;25.83;17.17;;;19.60;22.40;;;;;;7393727;19;20039;-72
2023/06/30 08:59:54;;;;;;;21.73;16.17;;;19.60;22.20;;;;;;7394030;19;20396;-72
2023/06/30 09:02:25;;;;;;;21.13;16.73;;;19.70;23.50;;;;;;7393816;19;20078;-72
2023/06/30 09:04:57;;;;;;;25.67;17.77;;;19.80;23.00;;;;;;7392436;19;20030;-72
2023/06/30 09:07:29;;;;;;;21.95;17.33;;;19.60;21.50;;;;;;7391900;19;20891;-72
2023/06/30 09:10:01;;;;;;;21.17;16.77;;;19.60;23.70;;;;;;7393879;19;20022;-71
2023/06/30 09:12:34;;;;;;;19.45;15.27;;;19.30;19.60;;;;;;7393402;19;20015;-72
2023/06/30 09:15:04;;;;;;;21.25;16.45;;;19.30;21.40;;;;;;7392626;19;20035;-72
2023/06/30 09:17:35;;;;;;;19.90;14.45;;;19.40;24.30;;;;;;7392087;19;20078;-72
2023/06/30 09:20:05;;;;;;;20.58;15.68;;;19.20;22.30;;;;;;7393334;19;20010;-73
2023/06/30 09:22:40;;;;;;;21.25;15.00;;;19.20;21.80;;;;;;7393473;19;20018;-70
2023/06/30 09:25:39;;;;;;;18.63;14.05;;;19.10;19.30;;;;;;7392359;19;20014;-71
2023/06/30 09:28:16;;;;;;;19.95;14.88;;;19.30;19.20;;;;;;7392229;19;20018;-72
2023/06/30 09:30:48;;;;;;;22.08;15.63;;;19.40;21.50;;;;;;7395485;19;20031;-71
2023/06/30 09:33:20;;;;;;;19.77;14.85;;;19.40;20.60;;;;;;7390865;19;20018;-71
2023/06/30 09:35:51;;;;;;;19.38;15.02;;;19.40;23.30;;;;;;7391316;19;20022;-74
2023/06/30 09:38:22;;;;;;;23.63;16.05;;;19.30;22.20;;;;;;7392125;19;20120;-72
2023/06/30 09:40:52;;;;;;;24.27;17.60;;;19.30;22.30;;;;;;7393662;19;20578;-71
2023/06/30 09:43:27;;;;;;;24.10;17.88;;;19.40;22.60;;;;;;7393679;19;20022;-71
2023/06/30 09:45:59;;;;;;;20.58;16.35;;;19.40;25.10;;;;;;7392383;19;20090;-73
2023/06/30 09:48:34;;;;;;;19.80;15.68;;;19.40;21.30;;;;;;7392052;19;20760;-72
2023/06/30 09:51:04;;;;;;;20.05;15.70;;;19.20;17.70;;;;;;7393612;19;20007;-70
2023/06/30 09:53:38;;;;;;;21.30;16.88;;;19.50;21.60;;;;;;7391783;19;20531;-70
2023/06/30 09:56:09;;;;;;;21.45;17.88;;;19.70;21.70;;;;;;7390776;19;20077;-70
2023/06/30 09:58:44;;;;;;;26.00;16.42;;;19.90;23.20;;;;;;7391525;19;20019;-70
2023/06/30 10:01:14;;;;;;;22.10;16.95;;;19.60;18.10;;;;;;7389317;19;20070;-70
2023/06/30 10:03:49;;;;;;;22.50;17.27;;;19.50;21.50;;;;;;7392576;19;20014;-71
2023/06/30 10:06:20;;;;;;;21.95;18.42;;;19.60;21.60;;;;;;7395341;19;20115;-70
2023/06/30 10:08:51;;;;;;;25.40;18.20;;;19.80;21.70;;;;;;7390856;19;20018;-70
2023/06/30 10:11:25;;;;;;;25.35;18.48;;;19.60;16.90;;;;;;7392998;19;20022;-69
2023/06/30 10:14:01;;;;;;;31.83;20.02;;;19.70;19.80;;;;;;7391016;19;20478;-69
2023/06/30 10:16:32;;;;;;;25.58;19.42;;;19.60;19.50;;;;;;7389939;19;20011;-69
2023/06/30 10:19:04;;;;;;;25.83;18.77;;;19.80;25.00;;;;;;7394533;19;20018;-69
2023/06/30 10:21:36;;;;;;;27.10;20.40;;;20.00;23.30;;;;;;7392596;19;20467;-70
2023/06/30 10:24:07;;;;;;;28.15;20.75;;;19.90;16.90;;;;;;7389263;19;20035;-69
2023/06/30 10:26:39;;;;;;;29.48;20.90;;;19.70;17.70;;;;;;7390885;19;20023;-70
2023/06/30 10:29:12;;;;;;;32.08;23.20;;;19.80;21.70;;;;;;7392309;19;20363;-70
2023/06/30 10:31:44;;;;;;;33.05;22.13;;;20.00;21.90;;;;;;7393368;19;20070;-70
2023/06/30 10:34:14;;;;;;;31.92;23.33;;;20.00;16.60;;;;;;7392838;19;20081;-69
2023/06/30 10:36:45;;;;;;;33.85;24.55;;;19.70;17.90;;;;;;7393063;19;20081;-70
2023/06/30 10:39:16;;;;;;;32.53;24.42;;;19.80;21.10;;;;;;7389695;19;20047;-70
2023/06/30 10:41:51;;;;;;;34.75;24.55;;;19.80;22.00;;;;;;7393622;19;20086;-69
2023/06/30 10:44:23;;;;;;;37.90;25.40;;;19.70;18.50;;;;;;7389719;19;20018;-69
2023/06/30 10:46:54;;;;;;;34.45;25.38;;;19.70;19.50;;;;;;7389292;19;20352;-70
2023/06/30 10:49:29;;;;;;;36.05;25.60;;;19.90;20.80;;;;;;7389350;19;20014;-69
2023/06/30 10:52:04;;;;;;;32.75;24.48;;;20.10;21.30;;;;;;7389289;19;20077;-69
2023/06/30 10:54:42;;;;;;;37.80;26.45;;;20.30;17.80;;;;;;7389810;19;20413;-69
2023/06/30 10:57:14;;;;;;;34.88;25.25;;;20.50;18.80;;;;;;7388303;19;20384;-69
2023/06/30 10:59:48;;;;;;;32.60;25.52;;;20.50;13.50;;;;;;7388764;19;20010;-69
2023/06/30 11:02:25;;;;;;;;;;;20.60;15.00;;;;;;7389929;19;20039;-70
2023/06/30 11:04:55;;;;;;;35.22;24.55;;;20.50;10.60;;;;;;7388575;19;20343;-70
2023/06/30 11:07:29;;;;;;;33.83;25.08;;;20.70;9.60;;;;;;7388357;19;20033;-70
2023/06/30 11:10:01;;;;;;;35.35;25.45;;;20.70;7.60;;;;;;7390941;19;20034;-70
2023/06/30 11:12:54;;;;;;;35.90;25.50;;;20.70;12.70;;;;;;7388506;19;20011;-70
2023/06/30 11:15:38;;;;;;;38.25;25.63;;;20.40;9.40;;;;;;7388165;19;20486;-69
2023/06/30 11:18:12;;;;;;;34.70;26.05;;;20.50;13.10;;;;;;7387360;19;20014;-69
2023/06/30 11:20:59;;;;;;;36.08;26.65;;;20.50;15.60;;;;;;7389438;19;20042;-70
2023/06/30 11:23:31;;;;;;;35.03;26.38;;;20.20;13.10;;;;;;7387528;19;20018;-70
2023/06/30 11:26:13;;;;;;;35.88;26.35;;;20.00;12.00;;;;;;7388489;19;20114;-70
2023/06/30 11:28:44;;;;;;;36.33;27.55;;;20.10;15.00;;;;;;7386764;19;20011;-68
2023/06/30 11:31:17;;;;;;;39.28;26.95;;;19.90;13.10;;;;;;7389608;19;20402;-69
2023/06/30 11:33:48;;;;;;;38.60;26.83;;;20.00;13.30;;;;;;7388324;19;20104;-69
2023/06/30 11:36:20;;;;;;;33.67;25.40;;;20.20;10.70;;;;;;7388430;19;20014;-69
2023/06/30 11:38:52;;;;;;;36.25;25.77;;;20.10;12.30;;;;;;7388257;19;20014;-69
2023/06/30 11:41:23;;;;;;;34.00;23.40;;;19.90;8.50;;;;;;7388414;19;20025;-69
2023/06/30 11:43:53;;;;;;;31.50;23.27;;;19.70;11.70;;;;;;7388357;19;20018;-69
2023/06/30 11:46:27;;;;;;;31.52;23.33;;;19.80;12.40;;;;;;7386402;19;20023;-68
2023/06/30 11:48:58;;;;;;;32.55;22.92;;;19.60;9.50;;;;;;7391467;19;20010;-69
2023/06/30 11:51:29;;;;;;;32.65;23.73;;;19.50;10.90;;;;;;7389492;19;20367;-69
2023/06/30 11:54:00;;;;;;;37.10;26.25;;;19.60;9.00;;;;;;7391241;19;20010;-70
2023/06/30 11:56:30;;;;;;;35.13;24.08;;;19.90;15.00;;;;;;7390748;19;20462;-69
2023/06/30 11:59:00;;;;;;;33.50;23.42;;;19.80;13.50;;;;;;7391655;19;20047;-70
2023/06/30 12:01:33;;;;;;;32.35;23.58;;;19.80;13.60;;;;;;7388300;19;20011;-70
2023/06/30 12:04:33;;;;;;;31.90;23.45;;;20.00;14.60;;;;;;7386584;19;20017;-70
2023/06/30 12:07:05;;;;;;;32.38;23.25;;;19.80;12.00;;;;;;7387747;19;20093;-69
2023/06/30 12:09:36;;;;;;;30.15;22.23;;;20.00;10.40;;;;;;7388670;19;20015;-69
2023/06/30 12:12:07;;;;;;;32.45;22.02;;;20.10;10.70;;;;;;7391208;19;20363;-70
2023/06/30 12:14:43;;;;;;;30.90;21.50;;;20.10;7.30;;;;;;7387017;19;20483;-71
2023/06/30 12:17:15;;;;;;;30.95;22.58;;;20.00;6.60;;;;;;7386565;19;20038;-71
2023/06/30 12:19:47;;;;;;;33.63;22.05;;;19.90;8.10;;;;;;7386313;19;20545;-70
2023/06/30 12:22:27;;;;;;;31.75;21.50;;;19.80;8.10;;;;;;7388289;19;20035;-71
2023/06/30 12:24:58;;;;;;;34.60;22.75;;;19.90;8.40;;;;;;7390045;19;20010;-70
2023/06/30 12:27:31;;;;;;;31.15;22.33;;;19.80;10.60;;;;;;7394128;19;20014;-71
2023/06/30 12:30:01;;;;;;;31.00;22.25;;;19.70;8.30;;;;;;7395428;19;20458;-70
2023/06/30 12:32:34;;;;;;;34.22;23.75;;;19.90;11.80;;;;;;7396608;19;20021;-71
2023/06/30 12:35:07;;;;;;;31.65;21.95;;;19.90;8.20;;;;;;7396772;19;20353;-69
2023/06/30 12:37:37;;;;;;;30.05;22.02;;;20.10;7.30;;;;;;7396139;19;20054;-71
2023/06/30 12:40:08;;;;;;;28.38;20.60;;;20.10;5.10;;;;;;7395173;19;20562;-70
2023/06/30 12:42:39;;;;;;;27.45;20.13;;;20.00;4.40;;;;;;7393185;19;20015;-70
2023/06/30 12:45:10;;;;;;;28.27;20.95;;;20.10;3.30;;;;;;7393257;19;20023;-70
2023/06/30 12:47:43;;;;;;;32.00;21.35;;;20.20;1.00;;;;;;7393507;19;20019;-70
2023/06/30 12:50:13;;;;;;;32.90;21.05;;;20.40;2.80;;;;;;7392244;19;20022;-71
2023/06/30 12:52:43;;;;;;;29.42;20.10;;;20.70;2.20;;;;;;7388591;19;20469;-70
2023/06/30 12:55:14;;;;;;;32.70;20.70;;;20.60;1.00;;;;;;7389884;19;20018;-70
2023/06/30 12:57:44;;;;;;;30.48;20.08;;;20.60;1.00;;;;;;7391960;19;20025;-71
2023/06/30 13:00:16;;;;;;;29.20;20.20;;;21.10;1.00;;;;;;7388299;19;20019;-71
2023/06/30 13:02:48;;;;;;;25.20;18.65;;;21.40;1.00;;;;;;7389816;19;20049;-71
2023/06/30 13:05:18;;;;;;;31.48;20.92;;;21.30;1.00;;;;;;7392341;19;20027;-70
2023/06/30 13:07:48;;;;;;;28.48;20.17;;;21.00;1.00;;;;;;7390299;19;20015;-72